sensor_id;sensor_type;location;lat;lon;timestamp;P1;durP1;ratioP1;P2;durP2;ratioP2
18647;SDS011;9453;50.294;18.644;2023-04-24T04:03:00;9.50;;;5.65;;
18647;SDS011;9453;50.294;18.644;2023-04-24T04:05:28;9.95;;;5.38;;
18647;SDS011;9453;50.294;18.644;2023-04-24T04:07:55;11.18;;;6.13;;
18647;SDS011;9453;50.294;18.644;2023-04-24T04:10:25;12.35;;;6.55;;
18647;SDS011;9453;50.294;18.644;2023-04-24T04:12:52;11.82;;;5.93;;
18647;SDS011;9453;50.294;18.644;2023-04-24T04:15:21;21.30;;;7.00;;
18647;SDS011;9453;50.294;18.644;2023-04-24T04:17:47;16.65;;;7.22;;
18647;SDS011;9453;50.294;18.644;2023-04-24T04:20:16;18.33;;;7.25;;
18647;SDS011;9453;50.294;18.644;2023-04-24T04:22:43;15.02;;;6.97;;
18647;SDS011;9453;50.294;18.644;2023-04-24T04:25:10;14.45;;;6.53;;
18647;SDS011;9453;50.294;18.644;2023-04-24T04:27:38;13.23;;;6.45;;
18647;SDS011;9453;50.294;18.644;2023-04-24T04:30:07;10.98;;;5.35;;
18647;SDS011;9453;50.294;18.644;2023-04-24T04:32:34;10.38;;;5.55;;
18647;SDS011;9453;50.294;18.644;2023-04-24T04:35:02;10.95;;;5.47;;
18647;SDS011;9453;50.294;18.644;2023-04-24T04:37:31;8.52;;;5.00;;
18647;SDS011;9453;50.294;18.644;2023-04-24T04:39:59;10.18;;;5.85;;
18647;SDS011;9453;50.294;18.644;2023-04-24T04:42:31;10.50;;;4.60;;
18647;SDS011;9453;50.294;18.644;2023-04-24T04:44:59;7.93;;;4.63;;
18647;SDS011;9453;50.294;18.644;2023-04-24T04:47:28;10.60;;;4.80;;
18647;SDS011;9453;50.294;18.644;2023-04-24T04:49:57;8.85;;;4.63;;
18647;SDS011;9453;50.294;18.644;2023-04-24T04:52:24;7.88;;;4.63;;
18647;SDS011;9453;50.294;18.644;2023-04-24T04:54:53;11.68;;;5.97;;
18647;SDS011;9453;50.294;18.644;2023-04-24T04:57:19;14.63;;;6.55;;
18647;SDS011;9453;50.294;18.644;2023-04-24T04:59:46;15.60;;;6.38;;
18647;SDS011;9453;50.294;18.644;2023-04-24T05:02:13;12.10;;;6.05;;
18647;SDS011;9453;50.294;18.644;2023-04-24T05:04:43;16.52;;;6.18;;
18647;SDS011;9453;50.294;18.644;2023-04-24T05:07:10;11.13;;;5.10;;
18647;SDS011;9453;50.294;18.644;2023-04-24T05:09:37;11.57;;;5.72;;
18647;SDS011;9453;50.294;18.644;2023-04-24T05:12:05;11.07;;;5.68;;
18647;SDS011;9453;50.294;18.644;2023-04-24T05:14:32;9.35;;;5.25;;
18647;SDS011;9453;50.294;18.644;2023-04-24T05:16:59;11.07;;;5.68;;
18647;SDS011;9453;50.294;18.644;2023-04-24T05:19:26;11.05;;;5.53;;
18647;SDS011;9453;50.294;18.644;2023-04-24T05:21:53;12.10;;;5.18;;
18647;SDS011;9453;50.294;18.644;2023-04-24T05:24:20;12.07;;;5.38;;
18647;SDS011;9453;50.294;18.644;2023-04-24T05:26:47;16.55;;;5.00;;
18647;SDS011;9453;50.294;18.644;2023-04-24T05:29:15;11.65;;;5.68;;
18647;SDS011;9453;50.294;18.644;2023-04-24T05:31:44;11.55;;;5.20;;
18647;SDS011;9453;50.294;18.644;2023-04-24T05:34:11;16.13;;;5.50;;
18647;SDS011;9453;50.294;18.644;2023-04-24T05:36:37;20.80;;;6.60;;
18647;SDS011;9453;50.294;18.644;2023-04-24T05:39:04;17.40;;;5.75;;
18647;SDS011;9453;50.294;18.644;2023-04-24T05:41:32;11.55;;;4.80;;
18647;SDS011;9453;50.294;18.644;2023-04-24T05:43:59;13.23;;;5.15;;
18647;SDS011;9453;50.294;18.644;2023-04-24T05:46:27;8.50;;;4.85;;
18647;SDS011;9453;50.294;18.644;2023-04-24T05:48:54;10.23;;;5.50;;
18647;SDS011;9453;50.294;18.644;2023-04-24T05:51:21;9.07;;;5.10;;
18647;SDS011;9453;50.294;18.644;2023-04-24T05:53:48;8.05;;;4.60;;
18647;SDS011;9453;50.294;18.644;2023-04-24T05:56:15;16.55;;;5.57;;
18647;SDS011;9453;50.294;18.644;2023-04-24T05:58:42;14.70;;;5.10;;
18647;SDS011;9453;50.294;18.644;2023-04-24T06:01:09;12.20;;;5.07;;
18647;SDS011;9453;50.294;18.644;2023-04-24T06:03:38;10.30;;;4.97;;
18647;SDS011;9453;50.294;18.644;2023-04-24T06:06:05;13.25;;;4.45;;
18647;SDS011;9453;50.294;18.644;2023-04-24T06:14:45;8.13;;;4.70;;
18647;SDS011;9453;50.294;18.644;2023-04-24T11:44:05;4.68;;;3.00;;
18647;SDS011;9453;50.294;18.644;2023-04-24T11:46:47;8.48;;;3.30;;
18647;SDS011;9453;50.294;18.644;2023-04-24T11:49:14;6.28;;;3.25;;
18647;SDS011;9453;50.294;18.644;2023-04-24T11:51:42;11.25;;;3.10;;
18647;SDS011;9453;50.294;18.644;2023-04-24T11:54:09;6.78;;;2.85;;
18647;SDS011;9453;50.294;18.644;2023-04-24T11:56:38;6.95;;;3.22;;
18647;SDS011;9453;50.294;18.644;2023-04-24T11:59:05;8.30;;;3.03;;
18647;SDS011;9453;50.294;18.644;2023-04-24T12:01:42;5.00;;;3.03;;
18647;SDS011;9453;50.294;18.644;2023-04-24T12:04:09;5.10;;;3.05;;
18647;SDS011;9453;50.294;18.644;2023-04-24T12:06:36;8.77;;;3.17;;
18647;SDS011;9453;50.294;18.644;2023-04-24T12:09:03;4.03;;;2.85;;
18647;SDS011;9453;50.294;18.644;2023-04-24T12:11:56;7.45;;;3.90;;
18647;SDS011;9453;50.294;18.644;2023-04-24T12:14:23;7.25;;;3.58;;
18647;SDS011;9453;50.294;18.644;2023-04-24T12:16:50;8.05;;;3.22;;
18647;SDS011;9453;50.294;18.644;2023-04-24T12:19:18;4.93;;;3.55;;
18647;SDS011;9453;50.294;18.644;2023-04-24T12:21:58;4.90;;;3.17;;
18647;SDS011;9453;50.294;18.644;2023-04-24T12:24:34;6.65;;;3.25;;
18647;SDS011;9453;50.294;18.644;2023-04-24T12:27:04;4.30;;;2.97;;
18647;SDS011;9453;50.294;18.644;2023-04-24T12:29:37;4.13;;;2.90;;
18647;SDS011;9453;50.294;18.644;2023-04-24T12:32:24;7.20;;;2.78;;
18647;SDS011;9453;50.294;18.644;2023-04-24T12:34:52;7.20;;;3.42;;
18647;SDS011;9453;50.294;18.644;2023-04-24T12:45:37;6.55;;;3.00;;
18647;SDS011;9453;50.294;18.644;2023-04-24T12:48:09;5.53;;;2.65;;
18647;SDS011;9453;50.294;18.644;2023-04-24T12:50:37;5.07;;;3.30;;
18647;SDS011;9453;50.294;18.644;2023-04-24T12:56:03;5.10;;;2.92;;
18647;SDS011;9453;50.294;18.644;2023-04-24T12:58:35;5.00;;;2.80;;
18647;SDS011;9453;50.294;18.644;2023-04-24T13:01:13;4.82;;;3.03;;
18647;SDS011;9453;50.294;18.644;2023-04-24T13:03:40;11.27;;;2.95;;
18647;SDS011;9453;50.294;18.644;2023-04-24T13:06:08;6.47;;;2.65;;
18647;SDS011;9453;50.294;18.644;2023-04-24T13:08:43;15.20;;;3.10;;
18647;SDS011;9453;50.294;18.644;2023-04-24T13:11:12;5.75;;;2.70;;
18647;SDS011;9453;50.294;18.644;2023-04-24T13:13:39;5.63;;;2.28;;
18647;SDS011;9453;50.294;18.644;2023-04-24T13:16:09;5.38;;;2.92;;
18647;SDS011;9453;50.294;18.644;2023-04-24T13:18:38;4.63;;;2.58;;
18647;SDS011;9453;50.294;18.644;2023-04-24T13:21:10;8.13;;;2.95;;
18647;SDS011;9453;50.294;18.644;2023-04-24T13:23:42;6.38;;;3.08;;
18647;SDS011;9453;50.294;18.644;2023-04-24T13:26:09;4.07;;;3.03;;
18647;SDS011;9453;50.294;18.644;2023-04-24T13:28:37;5.45;;;2.83;;
18647;SDS011;9453;50.294;18.644;2023-04-24T13:31:05;3.92;;;2.50;;
18647;SDS011;9453;50.294;18.644;2023-04-24T13:33:34;4.93;;;2.70;;
18647;SDS011;9453;50.294;18.644;2023-04-24T13:44:37;4.80;;;2.97;;
18647;SDS011;9453;50.294;18.644;2023-04-24T13:47:04;6.95;;;3.25;;
18647;SDS011;9453;50.294;18.644;2023-04-24T13:49:35;4.22;;;3.17;;
18647;SDS011;9453;50.294;18.644;2023-04-24T13:52:02;7.00;;;2.97;;
18647;SDS011;9453;50.294;18.644;2023-04-24T13:54:39;3.85;;;2.83;;
18647;SDS011;9453;50.294;18.644;2023-04-24T13:57:06;5.03;;;2.92;;
18647;SDS011;9453;50.294;18.644;2023-04-24T13:59:33;6.25;;;3.00;;
18647;SDS011;9453;50.294;18.644;2023-04-24T14:02:00;4.75;;;2.55;;
18647;SDS011;9453;50.294;18.644;2023-04-24T14:04:27;4.22;;;2.85;;
18647;SDS011;9453;50.294;18.644;2023-04-24T14:06:55;7.35;;;3.42;;
18647;SDS011;9453;50.294;18.644;2023-04-24T14:09:29;4.88;;;3.05;;
18647;SDS011;9453;50.294;18.644;2023-04-24T14:12:04;6.05;;;3.15;;
18647;SDS011;9453;50.294;18.644;2023-04-24T14:14:32;7.22;;;3.55;;
18647;SDS011;9453;50.294;18.644;2023-04-24T14:17:00;7.88;;;4.50;;
18647;SDS011;9453;50.294;18.644;2023-04-24T14:19:27;10.68;;;4.63;;
18647;SDS011;9453;50.294;18.644;2023-04-24T14:21:55;8.95;;;3.53;;
18647;SDS011;9453;50.294;18.644;2023-04-24T14:24:23;5.55;;;3.08;;
18647;SDS011;9453;50.294;18.644;2023-04-24T14:26:50;5.05;;;3.00;;
18647;SDS011;9453;50.294;18.644;2023-04-24T14:29:17;5.93;;;3.25;;
18647;SDS011;9453;50.294;18.644;2023-04-24T14:32:04;5.25;;;3.20;;
18647;SDS011;9453;50.294;18.644;2023-04-24T14:34:31;6.22;;;2.83;;
18647;SDS011;9453;50.294;18.644;2023-04-24T14:37:14;8.50;;;2.60;;
18647;SDS011;9453;50.294;18.644;2023-04-24T14:39:41;5.97;;;2.80;;
18647;SDS011;9453;50.294;18.644;2023-04-24T14:42:10;4.40;;;2.60;;
18647;SDS011;9453;50.294;18.644;2023-04-24T14:44:51;4.68;;;2.40;;
18647;SDS011;9453;50.294;18.644;2023-04-24T14:47:20;4.45;;;2.97;;
18647;SDS011;9453;50.294;18.644;2023-04-24T14:49:49;5.07;;;2.50;;
18647;SDS011;9453;50.294;18.644;2023-04-24T14:52:20;4.95;;;2.90;;
18647;SDS011;9453;50.294;18.644;2023-04-24T14:54:47;5.97;;;3.17;;
18647;SDS011;9453;50.294;18.644;2023-04-24T14:57:14;5.45;;;3.10;;
18647;SDS011;9453;50.294;18.644;2023-04-24T14:59:43;4.55;;;2.70;;
18647;SDS011;9453;50.294;18.644;2023-04-24T15:02:53;3.30;;;2.53;;
18647;SDS011;9453;50.294;18.644;2023-04-24T15:05:31;4.18;;;2.60;;
18647;SDS011;9453;50.294;18.644;2023-04-24T15:11:11;4.03;;;2.53;;
18647;SDS011;9453;50.294;18.644;2023-04-24T15:13:55;4.45;;;2.50;;
18647;SDS011;9453;50.294;18.644;2023-04-24T15:16:43;3.83;;;2.67;;
18647;SDS011;9453;50.294;18.644;2023-04-24T15:19:10;7.15;;;2.80;;
18647;SDS011;9453;50.294;18.644;2023-04-24T15:22:01;5.07;;;2.67;;
18647;SDS011;9453;50.294;18.644;2023-04-24T15:24:37;3.83;;;2.63;;
18647;SDS011;9453;50.294;18.644;2023-04-24T15:28:44;6.55;;;2.65;;
18647;SDS011;9453;50.294;18.644;2023-04-24T15:34:47;3.83;;;2.30;;
18647;SDS011;9453;50.294;18.644;2023-04-24T15:37:24;8.02;;;2.58;;
18647;SDS011;9453;50.294;18.644;2023-04-24T15:42:38;5.10;;;2.95;;
18647;SDS011;9453;50.294;18.644;2023-04-24T15:45:17;5.38;;;3.13;;
18647;SDS011;9453;50.294;18.644;2023-04-24T15:48:06;9.50;;;3.15;;
18647;SDS011;9453;50.294;18.644;2023-04-24T15:50:33;4.97;;;3.20;;
18647;SDS011;9453;50.294;18.644;2023-04-24T15:53:15;7.65;;;3.55;;
18647;SDS011;9453;50.294;18.644;2023-04-24T15:59:01;9.05;;;3.70;;
18647;SDS011;9453;50.294;18.644;2023-04-24T16:01:43;10.52;;;4.20;;
18647;SDS011;9453;50.294;18.644;2023-04-24T16:04:13;6.30;;;3.40;;
18647;SDS011;9453;50.294;18.644;2023-04-24T16:06:49;5.88;;;3.40;;
18647;SDS011;9453;50.294;18.644;2023-04-24T16:09:23;7.15;;;4.30;;
18647;SDS011;9453;50.294;18.644;2023-04-24T16:14:34;5.47;;;3.85;;
18647;SDS011;9453;50.294;18.644;2023-04-24T16:17:01;7.40;;;4.15;;
18647;SDS011;9453;50.294;18.644;2023-04-24T16:19:39;13.00;;;4.45;;
18647;SDS011;9453;50.294;18.644;2023-04-24T16:22:07;7.93;;;4.43;;
18647;SDS011;9453;50.294;18.644;2023-04-24T16:24:34;7.70;;;4.88;;
18647;SDS011;9453;50.294;18.644;2023-04-24T16:27:13;8.52;;;4.68;;
18647;SDS011;9453;50.294;18.644;2023-04-24T16:30:12;7.50;;;5.32;;
18647;SDS011;9453;50.294;18.644;2023-04-24T16:32:44;8.73;;;5.53;;
18647;SDS011;9453;50.294;18.644;2023-04-24T16:35:25;10.48;;;4.93;;
18647;SDS011;9453;50.294;18.644;2023-04-24T16:37:54;9.32;;;5.32;;
18647;SDS011;9453;50.294;18.644;2023-04-24T16:40:56;8.57;;;5.30;;
18647;SDS011;9453;50.294;18.644;2023-04-24T16:45:57;9.02;;;5.07;;
18647;SDS011;9453;50.294;18.644;2023-04-24T16:48:31;9.32;;;5.40;;
18647;SDS011;9453;50.294;18.644;2023-04-24T16:51:01;10.10;;;5.53;;
18647;SDS011;9453;50.294;18.644;2023-04-24T16:53:38;9.25;;;5.38;;
18647;SDS011;9453;50.294;18.644;2023-04-24T17:02:14;8.68;;;5.20;;
18647;SDS011;9453;50.294;18.644;2023-04-24T17:04:41;9.50;;;4.93;;
18647;SDS011;9453;50.294;18.644;2023-04-24T17:07:14;8.98;;;4.38;;
18647;SDS011;9453;50.294;18.644;2023-04-24T17:10:02;8.30;;;4.80;;
18647;SDS011;9453;50.294;18.644;2023-04-24T17:12:49;7.28;;;4.50;;
18647;SDS011;9453;50.294;18.644;2023-04-24T17:15:45;7.82;;;4.07;;
18647;SDS011;9453;50.294;18.644;2023-04-24T17:18:14;7.93;;;4.72;;
18647;SDS011;9453;50.294;18.644;2023-04-24T17:20:55;12.10;;;6.07;;
18647;SDS011;9453;50.294;18.644;2023-04-24T17:23:39;8.43;;;5.30;;
18647;SDS011;9453;50.294;18.644;2023-04-24T17:26:41;8.25;;;4.30;;
18647;SDS011;9453;50.294;18.644;2023-04-24T17:29:26;9.60;;;4.80;;
18647;SDS011;9453;50.294;18.644;2023-04-24T17:32:20;7.85;;;4.78;;
18647;SDS011;9453;50.294;18.644;2023-04-24T17:35:51;9.25;;;6.25;;
18647;SDS011;9453;50.294;18.644;2023-04-24T17:38:04;11.23;;;6.10;;
18647;SDS011;9453;50.294;18.644;2023-04-24T17:40:33;9.00;;;6.07;;
18647;SDS011;9453;50.294;18.644;2023-04-24T17:43:04;9.80;;;5.80;;
18647;SDS011;9453;50.294;18.644;2023-04-24T17:45:46;13.23;;;6.63;;
18647;SDS011;9453;50.294;18.644;2023-04-24T17:48:22;10.77;;;5.63;;
18647;SDS011;9453;50.294;18.644;2023-04-24T17:51:05;10.68;;;6.82;;
18647;SDS011;9453;50.294;18.644;2023-04-24T17:56:34;10.02;;;5.97;;
18647;SDS011;9453;50.294;18.644;2023-04-24T17:59:01;11.00;;;6.10;;
18647;SDS011;9453;50.294;18.644;2023-04-24T18:01:29;11.90;;;7.70;;
18647;SDS011;9453;50.294;18.644;2023-04-24T18:04:02;12.32;;;7.07;;
18647;SDS011;9453;50.294;18.644;2023-04-24T18:06:32;15.77;;;7.32;;
18647;SDS011;9453;50.294;18.644;2023-04-24T18:09:00;14.25;;;8.90;;
18647;SDS011;9453;50.294;18.644;2023-04-24T18:11:35;15.35;;;9.05;;
18647;SDS011;9453;50.294;18.644;2023-04-24T18:14:02;15.48;;;9.30;;
18647;SDS011;9453;50.294;18.644;2023-04-24T18:16:37;16.73;;;9.32;;
18647;SDS011;9453;50.294;18.644;2023-04-24T18:19:06;20.63;;;10.48;;
18647;SDS011;9453;50.294;18.644;2023-04-24T18:22:03;19.80;;;10.25;;
18647;SDS011;9453;50.294;18.644;2023-04-24T18:24:23;20.65;;;11.85;;
18647;SDS011;9453;50.294;18.644;2023-04-24T18:26:50;18.67;;;10.93;;
18647;SDS011;9453;50.294;18.644;2023-04-24T18:29:30;18.58;;;10.50;;
18647;SDS011;9453;50.294;18.644;2023-04-24T18:37:45;20.13;;;10.98;;
18647;SDS011;9453;50.294;18.644;2023-04-24T18:40:12;16.40;;;9.55;;
18647;SDS011;9453;50.294;18.644;2023-04-24T18:42:46;13.90;;;8.60;;
18647;SDS011;9453;50.294;18.644;2023-04-24T18:48:09;14.00;;;8.45;;
18647;SDS011;9453;50.294;18.644;2023-04-24T18:50:39;16.50;;;10.07;;
18647;SDS011;9453;50.294;18.644;2023-04-24T18:53:08;16.13;;;9.23;;
18647;SDS011;9453;50.294;18.644;2023-04-24T18:55:38;15.00;;;8.73;;
18647;SDS011;9453;50.294;18.644;2023-04-24T18:58:05;16.33;;;9.70;;
18647;SDS011;9453;50.294;18.644;2023-04-24T19:00:32;16.98;;;10.15;;
18647;SDS011;9453;50.294;18.644;2023-04-24T19:03:01;16.13;;;8.60;;
18647;SDS011;9453;50.294;18.644;2023-04-24T19:05:28;16.48;;;9.30;;
18647;SDS011;9453;50.294;18.644;2023-04-24T19:07:57;20.02;;;10.63;;
18647;SDS011;9453;50.294;18.644;2023-04-24T19:10:23;18.13;;;10.68;;
18647;SDS011;9453;50.294;18.644;2023-04-24T19:12:51;16.38;;;9.68;;
18647;SDS011;9453;50.294;18.644;2023-04-24T19:15:21;18.38;;;10.35;;
18647;SDS011;9453;50.294;18.644;2023-04-24T19:17:50;16.33;;;10.18;;
18647;SDS011;9453;50.294;18.644;2023-04-24T19:20:22;17.48;;;9.85;;
18647;SDS011;9453;50.294;18.644;2023-04-24T19:22:52;16.88;;;10.43;;
18647;SDS011;9453;50.294;18.644;2023-04-24T19:25:22;15.82;;;9.52;;
18647;SDS011;9453;50.294;18.644;2023-04-24T19:27:49;17.53;;;9.17;;
18647;SDS011;9453;50.294;18.644;2023-04-24T19:30:21;17.50;;;9.47;;
18647;SDS011;9453;50.294;18.644;2023-04-24T19:33:12;20.70;;;10.97;;
18647;SDS011;9453;50.294;18.644;2023-04-24T19:36:13;16.88;;;9.75;;
18647;SDS011;9453;50.294;18.644;2023-04-24T19:38:41;18.08;;;10.52;;
18647;SDS011;9453;50.294;18.644;2023-04-24T19:41:10;16.15;;;10.07;;
18647;SDS011;9453;50.294;18.644;2023-04-24T19:43:40;16.30;;;9.13;;
18647;SDS011;9453;50.294;18.644;2023-04-24T19:46:16;17.02;;;11.23;;
18647;SDS011;9453;50.294;18.644;2023-04-24T19:48:49;16.50;;;9.65;;
18647;SDS011;9453;50.294;18.644;2023-04-24T19:51:16;17.37;;;10.33;;
18647;SDS011;9453;50.294;18.644;2023-04-24T19:53:46;15.60;;;9.37;;
18647;SDS011;9453;50.294;18.644;2023-04-24T19:56:23;13.47;;;7.37;;
18647;SDS011;9453;50.294;18.644;2023-04-24T19:58:50;13.60;;;7.53;;
18647;SDS011;9453;50.294;18.644;2023-04-24T20:01:18;12.17;;;7.57;;
18647;SDS011;9453;50.294;18.644;2023-04-24T20:03:47;9.43;;;5.93;;
18647;SDS011;9453;50.294;18.644;2023-04-24T20:06:14;13.30;;;7.17;;
18647;SDS011;9453;50.294;18.644;2023-04-24T20:08:41;10.30;;;6.23;;
18647;SDS011;9453;50.294;18.644;2023-04-24T20:11:08;14.27;;;6.60;;
18647;SDS011;9453;50.294;18.644;2023-04-24T20:13:37;13.70;;;6.63;;
18647;SDS011;9453;50.294;18.644;2023-04-24T20:16:24;11.50;;;6.40;;
18647;SDS011;9453;50.294;18.644;2023-04-24T20:18:51;11.93;;;7.10;;
18647;SDS011;9453;50.294;18.644;2023-04-24T20:21:21;12.80;;;6.57;;
18647;SDS011;9453;50.294;18.644;2023-04-24T20:23:48;12.00;;;6.57;;
18647;SDS011;9453;50.294;18.644;2023-04-24T20:26:18;11.00;;;5.90;;
18647;SDS011;9453;50.294;18.644;2023-04-24T20:28:47;12.23;;;5.90;;
18647;SDS011;9453;50.294;18.644;2023-04-24T20:31:54;10.07;;;5.20;;
18647;SDS011;9453;50.294;18.644;2023-04-24T20:34:44;9.97;;;4.77;;
18647;SDS011;9453;50.294;18.644;2023-04-24T20:37:13;7.97;;;4.90;;
18647;SDS011;9453;50.294;18.644;2023-04-24T20:39:53;9.60;;;5.40;;
18647;SDS011;9453;50.294;18.644;2023-04-24T20:42:20;8.20;;;4.27;;
18647;SDS011;9453;50.294;18.644;2023-04-24T20:54:59;7.37;;;3.83;;
18647;SDS011;9453;50.294;18.644;2023-04-24T20:57:28;7.50;;;4.23;;
18647;SDS011;9453;50.294;18.644;2023-04-24T20:59:56;9.37;;;4.10;;
18647;SDS011;9453;50.294;18.644;2023-04-24T21:02:25;7.97;;;3.77;;
18647;SDS011;9453;50.294;18.644;2023-04-24T21:04:52;7.63;;;4.00;;
18647;SDS011;9453;50.294;18.644;2023-04-24T21:07:20;7.53;;;4.20;;
18647;SDS011;9453;50.294;18.644;2023-04-24T21:09:47;7.17;;;3.73;;
18647;SDS011;9453;50.294;18.644;2023-04-24T21:12:16;8.10;;;4.47;;
18647;SDS011;9453;50.294;18.644;2023-04-24T21:14:43;8.90;;;4.33;;
18647;SDS011;9453;50.294;18.644;2023-04-24T21:17:10;7.47;;;4.40;;
18647;SDS011;9453;50.294;18.644;2023-04-24T21:19:48;7.63;;;4.70;;
18647;SDS011;9453;50.294;18.644;2023-04-24T21:22:27;9.10;;;5.17;;
18647;SDS011;9453;50.294;18.644;2023-04-24T21:25:00;8.90;;;5.17;;
18647;SDS011;9453;50.294;18.644;2023-04-24T21:27:38;7.27;;;4.73;;
18647;SDS011;9453;50.294;18.644;2023-04-24T21:30:07;11.57;;;5.57;;
18647;SDS011;9453;50.294;18.644;2023-04-24T21:32:40;9.87;;;5.63;;
18647;SDS011;9453;50.294;18.644;2023-04-24T21:35:10;10.07;;;5.53;;
18647;SDS011;9453;50.294;18.644;2023-04-24T21:37:39;15.47;;;6.80;;
18647;SDS011;9453;50.294;18.644;2023-04-24T21:40:07;11.60;;;6.53;;
18647;SDS011;9453;50.294;18.644;2023-04-24T21:42:44;11.37;;;6.67;;
18647;SDS011;9453;50.294;18.644;2023-04-24T21:45:18;10.67;;;6.40;;
18647;SDS011;9453;50.294;18.644;2023-04-24T21:47:47;10.23;;;6.40;;
18647;SDS011;9453;50.294;18.644;2023-04-24T21:50:15;11.40;;;6.80;;
18647;SDS011;9453;50.294;18.644;2023-04-24T21:52:42;14.93;;;7.27;;
18647;SDS011;9453;50.294;18.644;2023-04-24T21:55:09;12.83;;;7.00;;
18647;SDS011;9453;50.294;18.644;2023-04-24T21:57:36;15.70;;;7.20;;
18647;SDS011;9453;50.294;18.644;2023-04-24T22:00:06;13.00;;;7.43;;
18647;SDS011;9453;50.294;18.644;2023-04-24T22:02:35;12.57;;;7.43;;
18647;SDS011;9453;50.294;18.644;2023-04-24T22:05:03;12.70;;;6.80;;
18647;SDS011;9453;50.294;18.644;2023-04-24T22:07:32;12.10;;;6.90;;
18647;SDS011;9453;50.294;18.644;2023-04-24T22:12:35;11.77;;;6.60;;
18647;SDS011;9453;50.294;18.644;2023-04-24T22:15:02;12.63;;;6.90;;
18647;SDS011;9453;50.294;18.644;2023-04-24T22:17:32;12.00;;;6.47;;
18647;SDS011;9453;50.294;18.644;2023-04-24T22:19:59;15.23;;;6.77;;
18647;SDS011;9453;50.294;18.644;2023-04-24T22:22:27;11.53;;;5.97;;
18647;SDS011;9453;50.294;18.644;2023-04-24T22:25:14;13.10;;;6.47;;
18647;SDS011;9453;50.294;18.644;2023-04-24T22:27:41;10.43;;;5.90;;
18647;SDS011;9453;50.294;18.644;2023-04-24T22:30:10;14.73;;;6.10;;
18647;SDS011;9453;50.294;18.644;2023-04-24T22:36:12;13.70;;;5.70;;
18647;SDS011;9453;50.294;18.644;2023-04-24T22:38:34;8.10;;;5.10;;
18647;SDS011;9453;50.294;18.644;2023-04-24T22:41:09;7.87;;;4.50;;
18647;SDS011;9453;50.294;18.644;2023-04-24T22:43:38;8.57;;;4.70;;
18647;SDS011;9453;50.294;18.644;2023-04-24T22:46:10;6.57;;;4.30;;
18647;SDS011;9453;50.294;18.644;2023-04-24T22:48:41;8.77;;;4.77;;
18647;SDS011;9453;50.294;18.644;2023-04-24T22:51:09;8.73;;;4.60;;
18647;SDS011;9453;50.294;18.644;2023-04-24T22:53:36;7.20;;;4.23;;
18647;SDS011;9453;50.294;18.644;2023-04-24T22:56:03;8.60;;;4.20;;
18647;SDS011;9453;50.294;18.644;2023-04-24T22:58:32;6.43;;;3.53;;
